Time;durP1;ratioP1;P1;durP2;ratioP2;P2;SDS_P1;SDS_P2;PMS_P1;PMS_P2;Temp;Humidity;BMP_temperature;BMP_pressure;BME280_temperature;BME280_humidity;BME280_pressure;Samples;Min_cycle;Max_cycle;Signal;HPM_P1;HPM_P2
2023/12/12 05:39:49;;;;;;;;;;;;;;;-0.21;100.00;99778.72;108763;1272;23145;-53
2023/12/12 05:42:16;;;;;;;;;;;;;;;-0.23;100.00;99778.80;109183;1269;25430;-47
2023/12/12 05:44:43;;;;;;;;;;;;;;;-0.24;100.00;99776.52;108015;1268;23140;-47
2023/12/12 05:47:09;;;;;;;;;;;;;;;-0.25;100.00;99775.82;107576;1266;25332;-48
2023/12/12 05:49:36;;;;;;;;;;;;;;;-0.25;100.00;99782.84;108110;1278;22528;-52
2023/12/12 05:52:04;;;;;;;;;;;;;;;-0.25;100.00;99791.25;107304;1276;23236;-50
2023/12/12 05:54:30;;;;;;;;;;;;;;;-0.24;100.00;99797.61;107689;1268;22508;-54
2023/12/12 05:56:57;;;;;;;;;;;;;;;-0.24;100.00;99796.43;108343;1272;22505;-47
2023/12/12 05:59:24;;;;;;;;;;;;;;;-0.21;100.00;99789.68;109365;1271;22478;-48
2023/12/12 06:01:50;;;;;;;;;;;;;;;-0.20;100.00;99785.79;109767;1276;22525;-53
2023/12/12 06:04:17;;;;;;;;;;;;;;;-0.18;100.00;99785.16;108836;1267;25256;-47
2023/12/12 06:06:44;;;;;;;;;;;;;;;-0.17;100.00;99781.10;109567;1272;23617;-48
2023/12/12 06:09:11;;;;;;;;;;;;;;;-0.17;100.00;99781.63;110011;1272;22439;-47
2023/12/12 06:11:38;;;;;;;;;;;;;;;-0.16;100.00;99778.91;109994;1272;23323;-53
2023/12/12 06:14:05;;;;;;;;;;;;;;;-0.14;100.00;99781.52;110004;1269;22484;-46
2023/12/12 06:16:34;;;;;;;;;;;;;;;-0.11;100.00;99785.73;109861;1271;23349;-46
2023/12/12 06:19:04;;;;;;;;;;;;;;;-0.10;100.00;99786.46;109697;1272;22443;-54
2023/12/12 06:21:32;;;;;;;;;;;;;;;-0.11;100.00;99790.91;109734;1272;23236;-52
2023/12/12 06:24:01;;;;;;;;;;;;;;;-0.11;100.00;99792.96;109766;1272;22528;-53
2023/12/12 06:26:28;;;;;;;;;;;;;;;-0.10;100.00;99793.67;109819;1272;23028;-53
2023/12/12 06:28:55;;;;;;;;;;;;;;;-0.08;100.00;99795.80;109932;1271;22435;-47
2023/12/12 06:31:23;;;;;;;;;;;;;;;-0.06;100.00;99791.39;109849;1271;22486;-46
2023/12/12 06:33:51;;;;;;;;;;;;;;;-0.05;100.00;99793.19;109733;1272;23194;-47
2023/12/12 06:36:24;;;;;;;;;;;;;;;-0.06;100.00;99794.18;108786;1270;22493;-53
2023/12/12 06:39:03;;;;;;;;;;;;;;;-0.04;100.00;99791.49;108871;1274;22503;-51
2023/12/12 06:41:30;;;;;;;;;;;;;;;-0.04;100.00;99793.54;108933;1269;25239;-51
2023/12/12 06:44:15;;;;;;;;;;;;;;;-0.05;100.00;99797.12;109158;1272;22684;-51
2023/12/12 06:47:27;;;;;;;;;;;;;;;-0.05;100.00;99803.79;108781;1278;22563;-45
2023/12/12 06:50:00;;;;;;;;;;;;;;;-0.07;100.00;99807.81;109306;1277;23285;-46
2023/12/12 06:52:28;;;;;;;;;;;;;;;-0.11;100.00;99814.73;108671;1279;23909;-49
2023/12/12 06:59:13;;;;;;;;;;;;;;;-0.16;100.00;99811.13;108543;1271;22534;-45
2023/12/12 07:02:08;;;;;;;;;;;;;;;-0.17;100.00;99810.42;108089;1276;22658;-51
2023/12/12 07:05:00;;;;;;;;;;;;;;;-0.15;100.00;99813.38;109325;1272;27437;-51
2023/12/12 07:07:35;;;;;;;;;;;;;;;-0.15;100.00;99819.21;108559;1273;22512;-47
2023/12/12 07:10:20;;;;;;;;;;;;;;;-0.14;100.00;99827.46;108976;1272;22646;-46
2023/12/12 07:12:48;;;;;;;;;;;;;;;-0.14;100.00;99827.80;108983;1273;22542;-50
2023/12/12 07:15:15;;;;;;;;;;;;;;;-0.13;100.00;99829.02;109134;1272;22657;-47
2023/12/12 07:17:42;;;;;;;;;;;;;;;-0.13;100.00;99834.52;109449;1276;23310;-45
2023/12/12 07:20:33;;;;;;;;;;;;;;;-0.13;100.00;99844.30;108806;1272;22570;-52
2023/12/12 07:24:00;;;;;;;;;;;;;;;-0.13;100.00;99846.54;109042;1279;22530;-47
2023/12/12 07:27:17;;;;;;;;;;;;;;;-0.13;100.00;99848.73;109614;1273;22857;-45
2023/12/12 07:30:27;;;;;;;;;;;;;;;-0.14;100.00;99855.08;109542;1273;22497;-51
2023/12/12 07:34:01;;;;;;;;;;;;;;;-0.16;100.00;99858.10;108909;1279;22488;-46
2023/12/12 07:37:12;;;;;;;;;;;;;;;-0.16;100.00;99845.42;109650;1272;22447;-51
2023/12/12 07:40:30;;;;;;;;;;;;;;;-0.15;100.00;99845.10;109607;1276;23217;-47
2023/12/12 07:43:05;;;;;;;;;;;;;;;-0.13;100.00;99852.02;109282;1271;22492;-47
2023/12/12 07:45:34;;;;;;;;;;;;;;;-0.11;100.00;99858.95;108934;1269;23099;-46
2023/12/12 07:48:04;;;;;;;;;;;;;;;-0.10;100.00;99857.79;109618;1273;22521;-46
2023/12/12 07:50:31;;;;;;;;;;;;;;;-0.10;100.00;99856.77;109403;1269;22538;-51
2023/12/12 07:52:59;;;;;;;;;;;;;;;-0.12;100.00;99854.30;108423;1273;22947;-50
2023/12/12 07:55:26;;;;;;;;;;;;;;;-0.13;100.00;99858.38;108710;1273;25448;-50
2023/12/12 07:57:54;;;;;;;;;;;;;;;-0.14;100.00;99863.99;109724;1280;22492;-51
2023/12/12 08:00:21;;;;;;;;;;;;;;;-0.15;100.00;99864.83;109064;1273;22503;-52
2023/12/12 08:02:48;;;;;;;;;;;;;;;-0.16;100.00;99866.86;109615;1279;23979;-51
2023/12/12 08:05:15;;;;;;;;;;;;;;;-0.15;100.00;99862.42;109595;1272;22506;-50
2023/12/12 08:07:48;;;;;;;;;;;;;;;-0.12;100.00;99855.67;109495;1274;23458;-47
2023/12/12 08:10:15;;;;;;;;;;;;;;;-0.12;100.00;99852.59;109817;1272;22940;-46
2023/12/12 08:12:43;;;;;;;;;;;;;;;-0.12;100.00;99851.91;109613;1273;22660;-51
2023/12/12 08:15:11;;;;;;;;;;;;;;;-0.11;100.00;99853.15;109294;1276;22484;-47
2023/12/12 08:17:38;;;;;;;;;;;;;;;-0.11;100.00;99857.26;109164;1277;23217;-47
2023/12/12 08:20:07;;;;;;;;;;;;;;;-0.12;100.00;99854.46;109618;1273;22619;-47
2023/12/12 08:22:34;;;;;;;;;;;;;;;-0.12;100.00;99851.04;109741;1272;22441;-51
2023/12/12 08:25:25;;;;;;;;;;;;;;;-0.12;100.00;99855.80;109785;1273;22426;-46
2023/12/12 08:28:17;;;;;;;;;;;;;;;-0.13;100.00;99852.71;109758;1272;23490;-51
2023/12/12 08:31:10;;;;;;;;;;;;;;;-0.11;100.00;99851.25;109522;1277;22931;-44
2023/12/12 08:33:37;;;;;;;;;;;;;;;-0.11;100.00;99848.52;109580;1279;22444;-50
2023/12/12 08:36:04;;;;;;;;;;;;;;;-0.12;100.00;99851.02;108927;1271;23687;-45
2023/12/12 08:38:31;;;;;;;;;;;;;;;-0.17;100.00;99852.08;109516;1272;23557;-50
2023/12/12 08:40:58;;;;;;;;;;;;;;;-0.19;100.00;99852.14;109477;1273;22493;-49
2023/12/12 08:43:25;;;;;;;;;;;;;;;-0.19;100.00;99845.46;108833;1269;22589;-47
2023/12/12 08:45:52;;;;;;;;;;;;;;;-0.19;100.00;99833.45;109201;1269;23375;-51
2023/12/12 08:48:19;;;;;;;;;;;;;;;-0.19;100.00;99833.64;109493;1272;22536;-47
2023/12/12 08:50:50;;;;;;;;;;;;;;;-0.17;100.00;99836.29;109923;1278;22465;-46
2023/12/12 08:53:26;;;;;;;;;;;;;;;-0.15;100.00;99837.20;109697;1279;22554;-47
2023/12/12 08:55:54;;;;;;;;;;;;;;;-0.13;100.00;99835.73;109954;1273;22462;-47
2023/12/12 08:58:24;;;;;;;;;;;;;;;-0.11;100.00;99839.93;109876;1263;22662;-47
2023/12/12 09:00:54;;;;;;;;;;;;;;;-0.09;100.00;99835.02;109929;1277;22473;-45
2023/12/12 09:03:21;;;;;;;;;;;;;;;-0.10;100.00;99837.92;109955;1272;23121;-50
2023/12/12 09:05:49;;;;;;;;;;;;;;;-0.10;100.00;99829.52;109887;1269;22540;-46
2023/12/12 09:08:16;;;;;;;;;;;;;;;-0.08;100.00;99826.65;109671;1279;23040;-47
2023/12/12 09:10:44;;;;;;;;;;;;;;;-0.06;100.00;99822.45;109824;1276;23203;-52
2023/12/12 09:13:12;;;;;;;;;;;;;;;-0.04;100.00;99818.23;109778;1269;23312;-51
2023/12/12 09:15:48;;;;;;;;;;;;;;;-0.02;100.00;99812.98;109283;1273;23265;-45
2023/12/12 09:18:25;;;;;;;;;;;;;;;0.01;100.00;99809.67;109539;1276;23081;-46
2023/12/12 09:20:52;;;;;;;;;;;;;;;0.04;100.00;99807.34;109364;1271;22500;-46
2023/12/12 09:23:20;;;;;;;;;;;;;;;0.05;100.00;99804.28;109207;1279;24195;-45
2023/12/12 09:25:49;;;;;;;;;;;;;;;0.05;100.00;99802.23;108993;1272;22515;-46
2023/12/12 09:28:21;;;;;;;;;;;;;;;0.07;100.00;99801.98;108889;1275;22735;-53
2023/12/12 09:30:51;;;;;;;;;;;;;;;0.08;100.00;99799.95;107847;1278;22509;-46
2023/12/12 09:33:18;;;;;;;;;;;;;;;0.08;100.00;99793.93;109129;1279;22496;-47
2023/12/12 09:35:46;;;;;;;;;;;;;;;0.08;100.00;99803.91;108688;1275;24301;-50
2023/12/12 09:38:19;;;;;;;;;;;;;;;0.08;100.00;99817.44;109606;1275;23000;-47
2023/12/12 09:40:51;;;;;;;;;;;;;;;0.05;100.00;99820.92;109313;1279;22499;-51
2023/12/12 09:43:45;;;;;;;;;;;;;;;-0.02;100.00;99821.39;109797;1272;22437;-46
2023/12/12 09:46:19;;;;;;;;;;;;;;;-0.02;100.00;99820.01;109678;1274;23944;-51
2023/12/12 09:48:47;;;;;;;;;;;;;;;-0.02;100.00;99821.39;109875;1272;22440;-50
2023/12/12 09:51:16;;;;;;;;;;;;;;;-0.03;100.00;99825.45;109780;1274;22506;-46
2023/12/12 09:53:46;;;;;;;;;;;;;;;-0.08;100.00;99824.26;109944;1272;22798;-46
2023/12/12 09:56:16;;;;;;;;;;;;;;;-0.09;100.00;99827.48;109773;1272;22554;-51
2023/12/12 09:58:46;;;;;;;;;;;;;;;-0.12;100.00;99819.47;109325;1273;22566;-52
2023/12/12 10:01:13;;;;;;;;;;;;;;;-0.17;100.00;99809.38;109691;1271;22506;-52
2023/12/12 10:03:40;;;;;;;;;;;;;;;-0.19;100.00;99813.05;109225;1278;22514;-52
2023/12/12 10:06:11;;;;;;;;;;;;;;;-0.22;100.00;99815.88;109454;1279;22519;-51
2023/12/12 10:08:38;;;;;;;;;;;;;;;-0.26;100.00;99813.35;109787;1277;23622;-51
2023/12/12 10:11:06;;;;;;;;;;;;;;;-0.28;100.00;99804.38;109496;1272;23288;-55
2023/12/12 10:13:57;;;;;;;;;;;;;;;-0.25;100.00;99803.06;109818;1273;22450;-53
2023/12/12 10:16:27;;;;;;;;;;;;;;;-0.24;100.00;99800.35;109901;1272;22648;-46
2023/12/12 10:18:54;;;;;;;;;;;;;;;-0.22;100.00;99803.37;108973;1279;22578;-51
2023/12/12 10:21:22;;;;;;;;;;;;;;;-0.18;100.00;99811.02;109600;1274;22536;-46
2023/12/12 10:23:49;;;;;;;;;;;;;;;-0.16;100.00;99806.31;109240;1279;23816;-46
2023/12/12 10:26:25;;;;;;;;;;;;;;;-0.16;100.00;99803.40;108508;1278;1300299;-46
2023/12/12 10:28:56;;;;;;;;;;;;;;;-0.16;100.00;99797.41;109819;1270;22882;-46
2023/12/12 10:31:28;;;;;;;;;;;;;;;-0.15;100.00;99801.05;109701;1275;22948;-51
2023/12/12 10:33:55;;;;;;;;;;;;;;;-0.13;100.00;99797.48;109889;1270;22643;-51
2023/12/12 10:36:23;;;;;;;;;;;;;;;-0.13;100.00;99791.66;109229;1275;22585;-46
2023/12/12 10:38:50;;;;;;;;;;;;;;;-0.12;100.00;99792.91;109873;1269;23234;-47
2023/12/12 10:41:17;;;;;;;;;;;;;;;-0.10;100.00;99791.80;109888;1279;22464;-46
2023/12/12 10:43:44;;;;;;;;;;;;;;;-0.08;100.00;99787.73;109890;1276;22631;-46
2023/12/12 10:46:11;;;;;;;;;;;;;;;-0.07;100.00;99793.77;109544;1264;22499;-46
2023/12/12 10:48:42;;;;;;;;;;;;;;;-0.07;100.00;99787.93;109869;1279;22434;-51
2023/12/12 10:51:09;;;;;;;;;;;;;;;-0.06;100.00;99787.50;109906;1271;22618;-52
2023/12/12 10:53:36;;;;;;;;;;;;;;;-0.04;100.00;99793.04;109740;1270;22430;-52
2023/12/12 10:56:04;;;;;;;;;;;;;;;-0.07;100.00;99797.58;109532;1273;22498;-47
2023/12/12 10:58:31;;;;;;;;;;;;;;;-0.09;100.00;99791.15;108285;1272;22474;-46
2023/12/12 11:00:58;;;;;;;;;;;;;;;-0.09;100.00;99786.15;109866;1273;23116;-48
2023/12/12 11:03:25;;;;;;;;;;;;;;;-0.05;100.00;99789.56;109740;1273;23214;-46
2023/12/12 11:05:52;;;;;;;;;;;;;;;-0.02;100.00;99791.88;109398;1279;22593;-47
2023/12/12 11:08:19;;;;;;;;;;;;;;;-0.00;100.00;99788.69;109530;1272;22498;-52
2023/12/12 11:10:51;;;;;;;;;;;;;;;0.02;100.00;99795.98;109384;1279;23315;-46
2023/12/12 11:13:42;;;;;;;;;;;;;;;0.03;100.00;99792.91;108387;1277;23034;-47
2023/12/12 11:16:28;;;;;;;;;;;;;;;0.05;100.00;99787.47;109564;1264;22427;-47
2023/12/12 11:23:07;;;;;;;;;;;;;;;0.16;100.00;99778.41;109796;1272;23019;-45
2023/12/12 11:26:25;;;;;;;;;;;;;;;0.23;100.00;99788.09;109435;1279;22639;-46
2023/12/12 11:29:54;;;;;;;;;;;;;;;0.25;100.00;99796.23;109878;1276;23393;-46
2023/12/12 11:40:26;;;;;;;;;;;;;;;0.22;100.00;99792.69;109872;1270;22466;-46
2023/12/12 11:43:18;;;;;;;;;;;;;;;0.23;100.00;99791.16;109945;1273;22472;-51
2023/12/12 11:45:46;;;;;;;;;;;;;;;0.24;100.00;99787.30;109345;1264;23460;-47
2023/12/12 11:48:12;;;;;;;;;;;;;;;0.26;100.00;99780.48;109698;1274;22501;-51
2023/12/12 11:50:46;;;;;;;;;;;;;;;0.28;100.00;99780.70;109662;1267;22498;-50
2023/12/12 11:53:24;;;;;;;;;;;;;;;0.28;100.00;99781.40;109974;1273;22549;-51
2023/12/12 11:56:09;;;;;;;;;;;;;;;0.29;100.00;99777.98;108929;1270;22534;-46
2023/12/12 11:59:22;;;;;;;;;;;;;;;0.32;100.00;99780.48;109054;1275;23356;-48
2023/12/12 12:01:56;;;;;;;;;;;;;;;0.31;100.00;99780.30;109531;1272;23586;-46
2023/12/12 12:05:06;;;;;;;;;;;;;;;0.29;100.00;99785.36;109368;1279;23022;-45
2023/12/12 12:07:59;;;;;;;;;;;;;;;0.26;100.00;99786.14;109732;1272;22437;-50
2023/12/12 12:10:57;;;;;;;;;;;;;;;0.24;100.00;99787.13;109169;1273;25259;-46
2023/12/12 12:14:00;;;;;;;;;;;;;;;0.24;100.00;99794.67;109852;1270;22549;-47
2023/12/12 12:16:28;;;;;;;;;;;;;;;0.23;100.00;99792.93;109710;1274;22956;-46
2023/12/12 12:19:45;;;;;;;;;;;;;;;0.22;100.00;99793.89;109104;1273;22470;-52
2023/12/12 12:22:12;;;;;;;;;;;;;;;0.20;100.00;99799.52;109850;1279;23326;-47
2023/12/12 12:24:42;;;;;;;;;;;;;;;0.20;100.00;99804.65;109713;1273;22513;-51
2023/12/12 12:27:14;;;;;;;;;;;;;;;0.19;100.00;99799.48;109738;1273;22414;-47
2023/12/12 12:30:08;;;;;;;;;;;;;;;0.18;100.00;99798.42;109026;1276;22994;-46
2023/12/12 12:37:06;;;;;;;;;;;;;;;0.18;100.00;99805.96;109731;1278;22835;-45
2023/12/12 12:52:28;;;;;;;;;;;;;;;0.20;100.00;99814.26;109744;1278;22424;-46
2023/12/12 13:00:02;;;;;;;;;;;;;;;0.22;100.00;99816.54;109995;1278;22476;-46
2023/12/12 13:02:56;;;;;;;;;;;;;;;0.24;100.00;99815.42;109750;1260;22568;-47
2023/12/12 13:05:32;;;;;;;;;;;;;;;0.25;100.00;99811.00;109589;1272;22548;-52
2023/12/12 13:08:00;;;;;;;;;;;;;;;0.28;100.00;99810.75;109408;1276;22409;-52
2023/12/12 13:10:33;;;;;;;;;;;;;;;0.32;100.00;99808.30;109687;1273;23345;-52
2023/12/12 13:13:20;;;;;;;;;;;;;;;0.38;100.00;99808.14;109712;1273;22479;-52
2023/12/12 13:16:00;;;;;;;;;;;;;;;0.43;100.00;99808.48;109780;1274;22504;-51
2023/12/12 13:18:28;;;;;;;;;;;;;;;0.46;100.00;99809.10;109904;1279;22416;-51
2023/12/12 13:20:55;;;;;;;;;;;;;;;0.49;100.00;99809.71;109772;1276;22445;-51
2023/12/12 13:23:22;;;;;;;;;;;;;;;0.51;100.00;99804.95;109812;1277;22884;-51
2023/12/12 13:25:48;;;;;;;;;;;;;;;0.50;100.00;99802.71;109721;1274;22476;-52
2023/12/12 13:28:15;;;;;;;;;;;;;;;0.51;100.00;99805.82;109705;1273;22442;-53
2023/12/12 13:30:42;;;;;;;;;;;;;;;0.50;100.00;99808.71;109735;1272;22422;-51
2023/12/12 13:33:11;;;;;;;;;;;;;;;0.49;100.00;99810.57;109502;1278;22609;-46
2023/12/12 13:35:37;;;;;;;;;;;;;;;0.48;100.00;99808.49;109911;1267;22450;-46
2023/12/12 13:38:04;;;;;;;;;;;;;;;0.47;100.00;99809.67;109941;1265;22388;-46
2023/12/12 13:40:31;;;;;;;;;;;;;;;0.47;100.00;99810.70;109878;1278;22758;-46
2023/12/12 13:42:59;;;;;;;;;;;;;;;0.48;100.00;99816.55;109997;1279;22432;-46
2023/12/12 13:45:25;;;;;;;;;;;;;;;0.48;100.00;99817.41;109979;1273;22490;-46
2023/12/12 13:47:52;;;;;;;;;;;;;;;0.49;100.00;99820.02;109975;1273;23105;-46
2023/12/12 13:50:19;;;;;;;;;;;;;;;0.50;100.00;99821.42;110038;1268;22441;-46
2023/12/12 13:52:46;;;;;;;;;;;;;;;0.51;100.00;99825.90;110063;1275;23069;-46
2023/12/12 13:55:12;;;;;;;;;;;;;;;0.52;100.00;99831.26;110078;1267;22547;-46
2023/12/12 13:57:39;;;;;;;;;;;;;;;0.53;100.00;99831.98;108824;1259;22540;-47
2023/12/12 14:00:08;;;;;;;;;;;;;;;0.53;100.00;99826.17;109971;1279;23040;-47
2023/12/12 14:02:36;;;;;;;;;;;;;;;0.53;100.00;99818.77;110015;1279;22422;-48
2023/12/12 14:05:03;;;;;;;;;;;;;;;0.53;100.00;99824.62;110008;1279;22411;-53
2023/12/12 14:07:31;;;;;;;;;;;;;;;0.52;100.00;99823.73;109283;1269;22552;-46
2023/12/12 14:09:58;;;;;;;;;;;;;;;0.50;100.00;99826.75;109954;1279;23297;-52
2023/12/12 14:12:25;;;;;;;;;;;;;;;0.48;100.00;99821.55;110130;1267;22449;-52
2023/12/12 14:14:51;;;;;;;;;;;;;;;0.47;100.00;99821.86;109999;1279;22447;-52
2023/12/12 14:17:18;;;;;;;;;;;;;;;0.48;100.00;99820.17;110037;1267;22431;-47
